createdAt,value
2023-01-09T00:02:12.966Z,522.00434
2023-01-09T00:17:15.392Z,513.65835
2023-01-09T00:32:17.699Z,511.79862
2023-01-09T00:47:19.911Z,525.8883
2023-01-09T01:02:22.395Z,527.45812
2023-01-09T01:17:25.122Z,529.83049
2023-01-09T01:32:27.488Z,530.62603
2023-01-09T01:47:29.905Z,530.22796
2023-01-09T02:02:32.584Z,539.5373
2023-01-09T02:17:34.991Z,527.45812
2023-01-09T02:32:37.379Z,542.01983
2023-01-09T02:47:39.736Z,562.73394
2023-01-09T03:02:42.176Z,573.231
2023-01-09T03:17:44.642Z,578.86472
2023-01-09T03:32:46.947Z,593.44568
2023-01-09T03:47:49.723Z,597.9643
2023-01-09T04:02:53.536Z,598.97779
2023-01-09T04:17:55.869Z,585.57897
2023-01-09T04:32:58.268Z,579.81445
2023-01-09T04:48:00.930Z,573.231
2023-01-09T05:03:03.220Z,564.98308
2023-01-09T05:18:05.525Z,560.05851
2023-01-09T05:33:07.912Z,567.25026
2023-01-09T05:48:10.328Z,561.39304
2023-01-09T06:03:12.696Z,554.34811
2023-01-09T06:18:15.346Z,564.53182
2023-01-09T06:33:17.672Z,586.06452
2023-01-09T06:48:20.047Z,619.99454
2023-01-09T07:03:22.394Z,607.73327
2023-01-09T07:18:24.815Z,632.76076
2023-01-09T07:33:27.146Z,632.19478
2023-01-09T07:48:29.720Z,658.09474
2023-01-09T08:03:32.213Z,699.10358
2023-01-09T08:18:34.506Z,771.95903
2023-01-09T08:33:37.739Z,791.83038
2023-01-09T08:48:41.025Z,723.43265
2023-01-09T09:03:43.363Z,710.34544
2023-01-09T09:18:45.631Z,727.90288
2023-01-09T09:33:47.960Z,697.72331
2023-01-09T09:48:50.262Z,699.10358
2023-01-09T10:03:52.691Z,669.31225
2023-01-09T10:18:55.088Z,655.65283
2023-01-09T10:33:57.453Z,665.53083
2023-01-09T10:48:59.735Z,667.41618
2023-01-09T11:04:02.143Z,679.60936
2023-01-09T11:19:04.557Z,703.9778
2023-01-09T11:34:06.823Z,718.28628
2023-01-09T11:49:09.167Z,776.19358
2023-01-09T12:04:11.570Z,774.4942
2023-01-09T12:19:15.298Z,776.6196
2023-01-09T12:34:17.625Z,760.75318
2023-01-09T12:49:19.890Z,698.41276
2023-01-09T13:04:22.200Z,709.63224
2023-01-09T13:19:24.558Z,713.93304
2023-01-09T13:34:26.995Z,692.93502
2023-01-09T13:49:29.321Z,670.58229
2023-01-09T14:04:31.588Z,658.09474
2023-01-09T14:19:33.950Z,636.17801
2023-01-09T14:34:36.304Z,669.31225
2023-01-09T14:49:38.610Z,680.91881
2023-01-09T15:04:40.968Z,641.37365
2023-01-09T15:19:43.359Z,712.49366
2023-01-09T15:34:45.670Z,717.55706
2023-01-09T15:49:47.969Z,660.5549
2023-01-09T16:04:50.328Z,618.36726
2023-01-09T16:19:52.834Z,591.45925
2023-01-09T16:34:55.130Z,601.01513
2023-01-09T16:49:57.477Z,580.29049
2023-01-09T17:04:59.828Z,665.53083
2023-01-09T17:20:02.132Z,785.23912
2023-01-09T17:35:04.486Z,816.03279
2023-01-09T17:50:06.869Z,892.74498
2023-01-09T18:05:09.351Z,1007.11794
2023-01-09T18:20:11.679Z,1020.92402
2023-01-09T18:35:14.115Z,995.07786
2023-01-09T18:50:16.709Z,973.17794
2023-01-09T19:05:19.094Z,1133.81461
2023-01-09T19:20:21.340Z,1182.12248
2023-01-09T19:35:23.776Z,1210.43678
2023-01-09T19:50:26.264Z,1246.69654
2023-01-09T20:05:28.853Z,1176.22661
2023-01-09T20:20:31.183Z,1108.06628
2023-01-09T20:35:33.558Z,1026.10637
2023-01-09T20:50:35.982Z,1053.61182
2023-01-09T21:05:38.323Z,885.48235
2023-01-09T21:20:40.712Z,1063.91028
2023-01-09T21:35:43.050Z,964.55401
2023-01-09T21:50:45.420Z,907.05178
2023-01-09T22:05:47.734Z,915.8581
2023-01-09T22:20:49.980Z,854.4691
2023-01-09T22:35:52.314Z,847.81356
2023-01-09T22:50:54.705Z,810.88875
2023-01-09T23:05:56.976Z,812.28523
2023-01-09T23:20:59.453Z,699.10358
2023-01-09T23:36:01.802Z,703.9778
2023-01-09T23:51:04.097Z,682.23333
